Time;durP1;ratioP1;P1;durP2;ratioP2;P2;SDS_P1;SDS_P2;PMS_P1;PMS_P2;Temp;Humidity;BMP_temperature;BMP_pressure;BME280_temperature;BME280_humidity;BME280_pressure;Samples;Min_cycle;Max_cycle;Signal;HPM_P1;HPM_P2
2021/06/10 00:01:07;;;;;;;41.27;23.07;;;;;;;11.79;100.00;94326.84;5074698;28;20206;-79
2021/06/10 00:03:33;;;;;;;48.23;24.37;;;;;;;11.79;100.00;94325.06;5074521;28;20280;-78
2021/06/10 00:06:00;;;;;;;49.70;25.77;;;;;;;11.84;100.00;94324.47;5074383;28;20252;-78
2021/06/10 00:08:26;;;;;;;45.20;24.87;;;;;;;11.87;100.00;94321.44;5074282;28;20208;-78
2021/06/10 00:10:53;;;;;;;50.13;27.17;;;;;;;11.85;100.00;94321.63;5074291;28;20218;-78
2021/06/10 00:13:20;;;;;;;55.77;27.40;;;;;;;11.89;100.00;94323.88;5074160;28;20199;-78
2021/06/10 00:15:46;;;;;;;51.33;26.40;;;;;;;11.85;100.00;94324.25;5074037;28;20228;-78
2021/06/10 00:18:12;;;;;;;45.87;25.57;;;;;;;11.77;100.00;94329.66;5074312;28;20206;-76
2021/06/10 00:20:40;;;;;;;44.90;24.20;;;;;;;11.71;100.00;94327.00;5074243;28;20233;-77
2021/06/10 00:23:08;;;;;;;35.53;20.70;;;;;;;11.47;100.00;94322.06;5074072;28;20222;-78
2021/06/10 00:25:35;;;;;;;37.83;22.27;;;;;;;11.41;100.00;94329.88;5073653;28;20235;-77
2021/06/10 00:28:01;;;;;;;44.40;22.77;;;;;;;11.42;100.00;94324.44;5074059;28;20574;-76
2021/06/10 00:30:28;;;;;;;42.90;22.87;;;;;;;11.47;100.00;94329.91;5074129;28;20237;-76
2021/06/10 00:32:54;;;;;;;53.20;27.40;;;;;;;11.66;100.00;94317.94;5076435;28;20290;-76
2021/06/10 00:35:23;;;;;;;58.90;29.40;;;;;;;11.73;100.00;94323.19;5073739;28;20222;-76
2021/06/10 00:37:50;;;;;;;57.53;28.93;;;;;;;11.72;100.00;94324.19;5073801;28;20219;-77
2021/06/10 00:40:18;;;;;;;59.73;27.80;;;;;;;11.65;100.00;94329.38;5073870;28;20217;-77
2021/06/10 00:42:44;;;;;;;52.40;25.50;;;;;;;11.58;100.00;94322.53;5073854;28;20209;-76
2021/06/10 00:45:14;;;;;;;42.67;23.03;;;;;;;11.48;100.00;94331.50;5073755;28;20218;-76
2021/06/10 00:47:41;;;;;;;50.63;25.57;;;;;;;11.51;100.00;94321.66;5073619;28;20199;-77
2021/06/10 00:50:08;;;;;;;45.87;24.73;;;;;;;11.43;100.00;94323.44;5073607;28;20203;-77
2021/06/10 00:52:34;;;;;;;54.10;26.67;;;;;;;11.44;100.00;94324.22;5073357;28;20206;-77
2021/06/10 00:55:00;;;;;;;55.67;27.27;;;;;;;11.40;100.00;94320.41;5073568;28;20194;-77
2021/06/10 00:57:28;;;;;;;47.67;25.73;;;;;;;11.37;100.00;94323.41;5073557;28;20202;-77
2021/06/10 00:59:54;;;;;;;59.33;29.67;;;;;;;11.51;100.00;94325.09;5073584;28;20198;-76
2021/06/10 01:02:20;;;;;;;58.70;29.47;;;;;;;11.48;100.00;94323.66;5073341;28;20213;-79
2021/06/10 01:04:46;;;;;;;64.43;29.53;;;;;;;11.57;100.00;94320.91;5073308;28;20198;-76
2021/06/10 01:07:19;;;;;;;62.27;28.73;;;;;;;11.51;100.00;94321.66;5072242;28;20205;-77
2021/06/10 01:09:48;;;;;;;61.53;29.47;;;;;;;11.58;100.00;94312.88;5073440;28;20213;-77
2021/06/10 01:12:21;;;;;;;59.23;27.43;;;;;;;11.43;100.00;94315.59;5073088;28;20201;-77
2021/06/10 01:14:56;;;;;;;49.67;25.70;;;;;;;11.39;100.00;94317.00;5073287;28;20199;-77
2021/06/10 01:17:24;;;;;;;55.40;26.97;;;;;;;11.35;100.00;94318.34;5073059;28;20210;-77
2021/06/10 01:20:01;;;;;;;46.05;25.70;;;;;;;11.25;100.00;94312.66;5072657;28;20932;-76
2021/06/10 01:22:33;;;;;;;44.17;23.70;;;;;;;11.27;100.00;94306.25;5073214;28;20285;-77
2021/06/10 01:25:11;;;;;;;57.07;27.07;;;;;;;11.44;100.00;94309.38;5073352;28;20231;-77
2021/06/10 01:27:43;;;;;;;54.87;25.33;;;;;;;11.36;100.00;94312.13;5073032;28;20233;-77
2021/06/10 01:30:12;;;;;;;59.73;28.70;;;;;;;11.43;100.00;94310.38;5073068;28;20256;-77
2021/06/10 01:32:42;;;;;;;57.87;28.17;;;;;;;11.44;100.00;94303.31;5072918;28;20207;-77
2021/06/10 01:35:09;;;;;;;59.77;27.50;;;;;;;11.39;100.00;94311.75;5073048;28;20203;-77
2021/06/10 01:37:38;;;;;;;59.63;27.00;;;;;;;11.38;100.00;94310.13;5072944;28;20206;-76
2021/06/10 01:40:06;;;;;;;59.33;27.73;;;;;;;11.39;100.00;94303.09;5072977;28;20252;-78
2021/06/10 01:42:33;;;;;;;50.60;25.07;;;;;;;11.29;100.00;94308.66;5072702;28;20225;-77
2021/06/10 01:45:01;;;;;;;49.43;24.77;;;;;;;11.27;100.00;94306.25;5072667;28;20260;-76
2021/06/10 01:47:27;;;;;;;45.03;23.67;;;;;;;11.22;100.00;94307.81;5072926;28;20198;-76
2021/06/10 01:49:56;;;;;;;49.97;23.30;;;;;;;11.17;100.00;94302.34;5072665;28;20689;-77
2021/06/10 01:52:24;;;;;;;49.60;23.23;;;;;;;11.15;100.00;94302.53;5072556;28;20653;-76
2021/06/10 01:54:54;;;;;;;42.70;21.67;;;;;;;11.08;100.00;94304.31;5072715;28;20205;-76
2021/06/10 01:57:21;;;;;;;45.63;23.03;;;;;;;11.19;100.00;94302.97;5072489;28;20230;-78
2021/06/10 01:59:49;;;;;;;45.33;22.37;;;;;;;11.23;100.00;94294.56;5072859;28;20202;-77
2021/06/10 02:02:18;;;;;;;46.43;22.07;;;;;;;11.18;100.00;94296.94;5072742;28;20205;-76
2021/06/10 02:04:45;;;;;;;46.67;25.50;;;;;;;11.16;100.00;94298.13;5071458;28;20456;-76
2021/06/10 02:07:11;;;;;;;37.40;19.83;;;;;;;11.12;100.00;94292.47;5072467;28;20209;-77
2021/06/10 02:09:38;;;;;;;37.73;20.80;;;;;;;11.15;100.00;94292.09;5072591;28;20209;-77
2021/06/10 02:12:05;;;;;;;38.97;19.30;;;;;;;11.13;100.00;94288.06;5072557;28;20308;-77
2021/06/10 02:14:31;;;;;;;34.33;17.83;;;;;;;11.07;100.00;94295.69;5072696;28;20248;-78
2021/06/10 02:16:59;;;;;;;35.17;18.30;;;;;;;11.01;100.00;94296.44;5072541;28;20231;-76
2021/06/10 02:19:26;;;;;;;31.53;17.37;;;;;;;11.02;100.00;94286.78;5074238;28;20195;-77
2021/06/10 02:21:52;;;;;;;32.97;17.20;;;;;;;10.92;100.00;94293.16;5076459;28;20202;-77
2021/06/10 02:24:19;;;;;;;29.50;16.27;;;;;;;10.91;100.00;94298.56;5076108;28;20589;-77
2021/06/10 02:26:45;;;;;;;32.20;17.53;;;;;;;10.90;100.00;94294.31;5076474;28;20202;-77
2021/06/10 02:29:11;;;;;;;33.37;18.17;;;;;;;10.85;100.00;94301.91;5076366;28;20199;-76
2021/06/10 02:31:37;;;;;;;30.57;16.20;;;;;;;10.84;100.00;94297.69;5077670;28;20203;-77
2021/06/10 02:34:04;;;;;;;30.77;17.70;;;;;;;10.78;100.00;94301.06;5076936;28;20195;-77
2021/06/10 02:36:33;;;;;;;33.37;16.37;;;;;;;10.75;100.00;94297.00;5076062;28;20223;-77
2021/06/10 02:39:02;;;;;;;31.73;17.17;;;;;;;10.69;100.00;94293.38;5075981;28;20244;-76
2021/06/10 02:41:30;;;;;;;33.33;17.57;;;;;;;10.73;100.00;94286.75;5076046;28;20665;-77
2021/06/10 02:43:58;;;;;;;34.97;17.40;;;;;;;10.78;100.00;94299.25;5076213;28;20206;-76
2021/06/10 02:46:25;;;;;;;31.87;18.43;;;;;;;10.76;100.00;94292.59;5076093;28;20203;-76
2021/06/10 02:48:53;;;;;;;31.33;16.20;;;;;;;10.72;100.00;94303.44;5075850;28;20203;-76
2021/06/10 02:51:20;;;;;;;34.23;16.87;;;;;;;10.75;100.00;94297.00;5075619;28;20711;-79
2021/06/10 02:53:49;;;;;;;33.10;17.00;;;;;;;10.79;100.00;94293.06;5076103;28;20588;-77
2021/06/10 02:56:17;;;;;;;35.67;17.10;;;;;;;10.78;100.00;94293.22;5075657;28;20258;-76
2021/06/10 02:58:45;;;;;;;29.70;15.83;;;;;;;10.71;100.00;94301.00;5075670;28;20203;-78
2021/06/10 03:01:12;;;;;;;33.77;16.80;;;;;;;10.67;100.00;94292.72;5075686;28;20199;-76
2021/06/10 03:03:38;;;;;;;29.57;16.70;;;;;;;10.71;100.00;94295.78;5075514;28;20213;-76
2021/06/10 03:06:05;;;;;;;30.40;16.30;;;;;;;10.67;100.00;94292.72;5075536;28;20206;-77
2021/06/10 03:08:32;;;;;;;31.03;16.40;;;;;;;10.66;100.00;94300.78;5075574;28;20194;-78
2021/06/10 03:11:02;;;;;;;34.97;17.37;;;;;;;10.66;100.00;94292.94;5075731;28;20225;-77
2021/06/10 03:13:32;;;;;;;34.17;16.63;;;;;;;10.61;100.00;94290.06;5075531;28;20214;-77
2021/06/10 03:15:59;;;;;;;31.80;16.47;;;;;;;10.57;100.00;94292.25;5075421;28;20199;-77
2021/06/10 03:18:25;;;;;;;32.57;15.33;;;;;;;10.55;100.00;94291.63;5075283;28;20206;-76
2021/06/10 03:20:52;;;;;;;31.57;16.27;;;;;;;10.57;100.00;94287.03;5075244;28;20233;-76
2021/06/10 03:23:18;;;;;;;38.13;17.87;;;;;;;10.60;100.00;94281.44;5075357;28;20207;-77
2021/06/10 03:25:44;;;;;;;36.63;17.10;;;;;;;10.58;100.00;94298.28;5074928;28;20229;-77
2021/06/10 03:28:12;;;;;;;36.92;20.63;;;;;;;10.57;100.00;94294.84;5074108;28;20434;-78
2021/06/10 03:30:38;;;;;;;26.17;16.23;;;;;;;10.52;100.00;94294.59;5073986;28;20203;-78
2021/06/10 03:33:06;;;;;;;22.80;14.40;;;;;;;10.41;100.00;94300.31;5075028;28;20203;-77
2021/06/10 03:35:34;;;;;;;19.37;12.07;;;;;;;10.34;100.00;94300.25;5075437;28;20210;-77
2021/06/10 03:38:00;;;;;;;24.20;13.17;;;;;;;10.34;100.00;94295.03;5075005;28;20252;-77
2021/06/10 03:40:27;;;;;;;32.40;16.77;;;;;;;10.49;100.00;94289.75;5075283;28;20654;-76
2021/06/10 03:42:54;;;;;;;36.03;18.40;;;;;;;10.64;100.00;94285.28;5074917;28;20203;-77
2021/06/10 03:45:22;;;;;;;45.53;21.03;;;;;;;10.72;100.00;94287.78;5075363;28;20210;-77
2021/06/10 03:47:48;;;;;;;48.73;21.90;;;;;;;10.79;100.00;94282.59;5074771;28;20199;-78
2021/06/10 03:50:16;;;;;;;56.17;23.73;;;;;;;10.84;100.00;94285.44;5074835;28;20205;-78
2021/06/10 03:52:44;;;;;;;44.20;21.47;;;;;;;10.85;100.00;94289.66;5074639;28;20210;-77
2021/06/10 03:55:11;;;;;;;41.23;20.13;;;;;;;10.79;100.00;94295.66;5074657;28;20205;-77
2021/06/10 03:57:37;;;;;;;42.97;20.17;;;;;;;10.77;100.00;94297.63;5074449;28;20199;-76
2021/06/10 04:00:06;;;;;;;28.03;15.70;;;;;;;10.64;100.00;94295.75;5074544;28;20210;-78
2021/06/10 04:02:34;;;;;;;24.20;14.67;;;;;;;10.53;100.00;94293.63;5074396;28;20213;-76
2021/06/10 04:05:00;;;;;;;24.87;15.07;;;;;;;10.51;100.00;94306.06;5074428;28;20211;-76
2021/06/10 04:07:27;;;;;;;27.10;16.30;;;;;;;10.57;100.00;94294.84;5074133;28;20227;-78
2021/06/10 04:09:53;;;;;;;42.90;19.90;;;;;;;10.76;100.00;94295.22;5074455;28;20234;-77
2021/06/10 04:12:19;;;;;;;32.40;17.27;;;;;;;10.71;100.00;94301.81;5074223;28;20202;-78
2021/06/10 04:14:45;;;;;;;43.63;20.67;;;;;;;10.82;100.00;94299.69;5074405;28;20203;-77
2021/06/10 04:17:11;;;;;;;44.60;21.67;;;;;;;10.87;100.00;94294.69;5074316;28;20203;-77
2021/06/10 04:19:38;;;;;;;42.30;20.63;;;;;;;10.87;100.00;94297.31;5074374;28;20206;-76
2021/06/10 04:22:04;;;;;;;29.20;16.23;;;;;;;10.78;100.00;94293.22;5074245;28;20226;-78
2021/06/10 04:24:30;;;;;;;33.93;16.80;;;;;;;10.80;100.00;94296.47;5073795;28;20586;-76
2021/06/10 04:26:56;;;;;;;36.60;18.67;;;;;;;10.88;100.00;94298.94;5073859;28;20226;-76
2021/06/10 04:29:22;;;;;;;42.97;19.93;;;;;;;10.97;100.00;94289.16;5073568;28;20588;-76
2021/06/10 04:31:49;;;;;;;57.57;25.33;;;;;;;11.19;100.00;94292.50;5076036;28;20195;-78
2021/06/10 04:34:15;;;;;;;51.97;24.87;;;;;;;11.25;100.00;94295.16;5073980;28;20202;-79
2021/06/10 04:36:42;;;;;;;58.27;24.13;;;;;;;11.33;100.00;94288.19;5073936;28;20210;-78
2021/06/10 04:39:08;;;;;;;57.80;27.30;;;;;;;11.45;100.00;94292.66;5074124;28;20211;-78
2021/06/10 04:41:34;;;;;;;47.60;22.63;;;;;;;11.43;100.00;94294.69;5073507;28;20203;-77
2021/06/10 04:44:00;;;;;;;41.43;20.87;;;;;;;11.42;100.00;94306.16;5073421;28;20239;-77
2021/06/10 04:46:26;;;;;;;24.53;14.90;;;;;;;11.32;100.00;94299.63;5073766;28;20258;-76
2021/06/10 04:48:53;;;;;;;26.67;16.30;;;;;;;11.41;100.00;94299.31;5073664;28;20510;-78
2021/06/10 04:51:19;;;;;;;32.80;19.00;;;;;;;11.43;100.00;94305.13;5073717;28;20199;-77
2021/06/10 04:53:47;;;;;;;30.00;17.87;;;;;;;11.54;100.00;94295.97;5073503;28;20203;-79
2021/06/10 04:56:14;;;;;;;34.33;17.00;;;;;;;11.63;100.00;94300.00;5073389;28;20237;-77
2021/06/10 04:58:40;;;;;;;36.83;19.23;;;;;;;11.72;100.00;94299.84;5073762;28;20247;-78
2021/06/10 05:01:06;;;;;;;46.53;23.73;;;;;;;11.92;100.00;94297.34;5073271;28;20662;-78
2021/06/10 05:03:32;;;;;;;40.70;22.20;;;;;;;12.08;100.00;94299.63;5073445;28;20206;-79
2021/06/10 05:05:58;;;;;;;45.20;24.63;;;;;;;12.19;100.00;94301.69;5073073;28;20276;-78
2021/06/10 05:08:24;;;;;;;46.50;23.97;;;;;;;12.28;100.00;94302.31;5073196;28;20205;-78
2021/06/10 05:10:51;;;;;;;42.30;23.73;;;;;;;12.44;100.00;94295.91;5073174;28;20209;-77
2021/06/10 05:13:17;;;;;;;43.17;23.10;;;;;;;12.55;100.00;94297.91;5073373;28;20203;-78
2021/06/10 05:15:44;;;;;;;35.83;20.97;;;;;;;12.64;100.00;94293.31;5073063;28;20202;-77
2021/06/10 05:18:10;;;;;;;28.50;17.67;;;;;;;12.81;100.00;94298.16;5073128;28;20272;-77
2021/06/10 05:20:36;;;;;;;20.47;14.27;;;;;;;13.10;100.00;94302.19;5072988;28;20226;-78
2021/06/10 05:23:02;;;;;;;24.13;15.67;;;;;;;13.26;100.00;94293.91;5073078;28;20284;-78
2021/06/10 05:25:28;;;;;;;33.00;17.17;;;;;;;13.36;100.00;94292.72;5072668;28;20230;-78
2021/06/10 05:27:55;;;;;;;23.23;15.57;;;;;;;13.74;100.00;94297.25;5073082;28;20650;-78
2021/06/10 05:30:22;;;;;;;25.02;15.63;;;;;;;14.13;100.00;94293.66;5073186;28;20206;-77
2021/06/10 05:32:48;;;;;;;22.73;15.05;;;;;;;14.33;100.00;94300.63;5072760;28;20295;-77
2021/06/10 05:35:14;;;;;;;20.42;13.43;;;;;;;14.58;100.00;94304.13;5072885;28;20198;-78
2021/06/10 05:37:40;;;;;;;17.58;12.80;;;;;;;15.13;100.00;94292.22;5072963;28;20661;-78
2021/06/10 05:40:08;;;;;;;17.30;13.57;;;;;;;16.37;100.00;94299.22;5072214;28;20437;-78
2021/06/10 05:42:34;;;;;;;15.65;12.00;;;;;;;17.92;100.00;94299.22;5073008;28;20225;-80
2021/06/10 05:45:03;;;;;;;10.90;9.05;;;;;;;19.38;100.00;94300.50;5072735;28;20201;-79
2021/06/10 05:47:32;;;;;;;9.48;6.65;;;;;;;19.64;100.00;94298.22;5072783;28;20226;-78
2021/06/10 05:49:58;;;;;;;9.30;6.18;;;;;;;20.58;100.00;94301.75;5072791;28;20199;-78
2021/06/10 05:52:25;;;;;;;8.07;5.25;;;;;;;21.51;100.00;94298.06;5072756;28;20198;-78
2021/06/10 05:54:51;;;;;;;8.00;5.22;;;;;;;22.04;100.00;94298.13;5077744;28;20645;-78
2021/06/10 05:57:17;;;;;;;6.00;4.97;;;;;;;22.51;100.00;94299.91;5079531;28;20206;-79
2021/06/10 05:59:46;;;;;;;9.38;5.30;;;;;;;22.79;100.00;94292.53;5079326;28;20714;-77
2021/06/10 06:02:14;;;;;;;6.40;4.45;;;;;;;23.02;100.00;94293.09;5079169;28;20202;-79
2021/06/10 06:04:40;;;;;;;6.93;4.80;;;;;;;23.76;100.00;94296.25;5079326;28;20202;-78
2021/06/10 06:07:06;;;;;;;5.93;4.53;;;;;;;24.44;98.05;94289.66;5079033;28;20230;-78
2021/06/10 06:09:32;;;;;;;8.43;5.00;;;;;;;24.09;96.07;94294.06;5079356;28;20657;-78
2021/06/10 06:11:58;;;;;;;5.28;4.40;;;;;;;24.34;98.52;94301.16;5079648;28;20201;-78
2021/06/10 06:14:27;;;;;;;5.60;4.20;;;;;;;24.74;97.04;94302.84;5079188;28;20239;-77
2021/06/10 06:16:53;;;;;;;5.65;4.45;;;;;;;24.60;98.88;94301.06;5079620;28;20209;-77
2021/06/10 06:19:21;;;;;;;6.10;4.30;;;;;;;24.49;90.18;94294.97;5079213;28;20645;-79
2021/06/10 06:21:47;;;;;;;5.68;4.60;;;;;;;24.00;89.69;94299.97;5079064;28;20208;-77
2021/06/10 06:24:14;;;;;;;8.02;4.60;;;;;;;23.52;88.10;94307.50;5078364;28;20976;-76
2021/06/10 06:26:41;;;;;;;5.97;4.97;;;;;;;22.51;85.68;94299.09;5081176;28;20280;-77
2021/06/10 06:29:08;;;;;;;6.05;4.38;;;;;;;21.92;82.45;94295.66;5079118;28;20213;-77
2021/06/10 06:31:34;;;;;;;5.80;4.65;;;;;;;21.31;86.74;94295.25;5079100;28;20293;-77
2021/06/10 06:34:01;;;;;;;6.05;4.85;;;;;;;21.31;82.89;94301.38;5079088;28;20199;-77
2021/06/10 06:36:28;;;;;;;5.25;4.50;;;;;;;21.12;83.63;94300.97;5078921;28;20199;-77
2021/06/10 06:38:58;;;;;;;8.35;4.65;;;;;;;20.73;87.36;94303.00;5079060;28;20213;-76
2021/06/10 06:41:24;;;;;;;5.68;5.00;;;;;;;20.38;85.95;94298.88;5079228;28;20206;-77
2021/06/10 06:43:50;;;;;;;7.03;4.15;;;;;;;20.43;83.72;94304.25;5079013;28;20355;-77
2021/06/10 06:46:16;;;;;;;6.50;4.80;;;;;;;20.21;84.42;94298.97;5078941;28;20230;-77
2021/06/10 06:48:42;;;;;;;7.63;4.20;;;;;;;20.87;82.53;94301.53;5078882;28;20195;-77
2021/06/10 06:51:09;;;;;;;4.68;3.85;;;;;;;21.35;82.23;94296.34;5078621;28;20767;-78
2021/06/10 06:53:36;;;;;;;7.15;4.32;;;;;;;21.37;81.08;94295.03;5078720;28;20209;-78
2021/06/10 06:56:03;;;;;;;5.65;4.43;;;;;;;21.59;79.07;94294.16;5079076;28;20206;-78
2021/06/10 06:58:30;;;;;;;7.03;5.47;;;;;;;20.43;83.63;94301.59;5078748;28;20680;-78
2021/06/10 07:00:57;;;;;;;9.48;5.47;;;;;;;20.27;83.92;94303.28;5078828;28;20248;-77
2021/06/10 07:03:23;;;;;;;9.82;6.35;;;;;;;19.86;88.20;94308.88;5078929;28;20749;-77
2021/06/10 07:05:50;;;;;;;8.48;5.60;;;;;;;19.50;88.96;94313.66;5076937;28;20225;-77
2021/06/10 07:08:16;;;;;;;7.82;5.57;;;;;;;19.50;90.10;94311.00;5075731;28;20236;-79
2021/06/10 07:10:43;;;;;;;5.88;4.97;;;;;;;19.66;89.30;94316.50;5075430;28;20665;-79
2021/06/10 07:13:09;;;;;;;6.97;5.07;;;;;;;19.45;90.84;94307.47;5075511;28;20203;-79
2021/06/10 07:15:36;;;;;;;6.88;5.30;;;;;;;19.38;90.06;94313.75;5075375;28;20222;-79
2021/06/10 07:18:03;;;;;;;7.60;5.40;;;;;;;19.36;94.75;94309.72;5075216;28;20677;-78
2021/06/10 07:20:29;;;;;;;8.48;5.88;;;;;;;19.41;95.58;94312.44;5075419;28;20198;-77
2021/06/10 07:22:55;;;;;;;9.88;6.13;;;;;;;19.27;96.43;94313.81;5075420;28;20210;-78
2021/06/10 07:25:21;;;;;;;10.93;6.68;;;;;;;19.09;96.61;94310.38;5075200;28;20506;-78
2021/06/10 07:27:50;;;;;;;8.27;6.38;;;;;;;18.91;100.00;94321.97;5075265;28;20233;-76
2021/06/10 07:30:18;;;;;;;8.43;5.93;;;;;;;18.80;99.88;94320.97;5075367;28;20241;-76
2021/06/10 07:32:44;;;;;;;7.45;5.50;;;;;;;18.71;99.79;94314.44;5074957;28;20573;-77
2021/06/10 07:35:11;;;;;;;7.93;5.68;;;;;;;18.85;100.00;94323.75;5074979;28;20298;-77
2021/06/10 07:37:37;;;;;;;7.68;5.97;;;;;;;19.26;98.71;94317.50;5075306;28;20507;-76
2021/06/10 07:40:04;;;;;;;10.75;6.10;;;;;;;19.50;99.23;94316.31;5074911;28;20201;-77
2021/06/10 07:42:30;;;;;;;9.60;6.28;;;;;;;19.51;94.83;94317.88;5074854;28;20199;-77
2021/06/10 07:44:58;;;;;;;9.73;6.07;;;;;;;19.56;96.13;94315.31;5074964;28;20205;-77
2021/06/10 07:47:24;;;;;;;7.15;5.78;;;;;;;19.50;95.33;94313.66;5074673;28;20247;-77
2021/06/10 07:49:50;;;;;;;7.40;5.80;;;;;;;19.46;96.32;94322.31;5075010;28;20199;-78
2021/06/10 07:52:16;;;;;;;9.75;6.35;;;;;;;19.48;98.17;94318.38;5074106;28;20437;-78
2021/06/10 07:54:42;;;;;;;8.38;5.80;;;;;;;19.56;96.95;94328.56;5074765;28;20229;-78
2021/06/10 07:57:08;;;;;;;7.90;6.28;;;;;;;19.45;95.34;94324.19;5074623;28;20199;-77
2021/06/10 07:59:36;;;;;;;7.60;5.90;;;;;;;19.27;96.74;94321.75;5074793;28;20198;-77
2021/06/10 08:02:04;;;;;;;9.30;6.57;;;;;;;19.02;97.95;94326.41;5074543;28;20566;-77
2021/06/10 08:04:31;;;;;;;6.80;5.40;;;;;;;19.11;98.97;94321.50;5074634;28;20256;-76
2021/06/10 08:06:57;;;;;;;8.13;5.80;;;;;;;19.37;96.43;94321.94;5074251;28;20233;-76
2021/06/10 08:09:23;;;;;;;11.02;5.97;;;;;;;19.80;95.26;94320.47;5074437;28;20199;-76
2021/06/10 08:11:49;;;;;;;6.88;5.10;;;;;;;19.95;92.83;94323.31;5074306;28;20276;-78
2021/06/10 08:14:15;;;;;;;7.00;5.68;;;;;;;20.15;90.74;94321.94;5074186;28;20228;-79
2021/06/10 08:16:41;;;;;;;12.63;6.20;;;;;;;20.42;87.88;94316.72;5073791;28;20202;-79
2021/06/10 08:19:08;;;;;;;9.20;5.88;;;;;;;20.60;88.28;94312.09;5074057;28;20199;-77
2021/06/10 08:21:34;;;;;;;8.68;5.68;;;;;;;20.54;85.79;94316.56;5074032;28;20199;-76
2021/06/10 08:24:00;;;;;;;8.90;6.05;;;;;;;20.39;86.89;94324.38;5073860;28;20226;-78
2021/06/10 08:26:28;;;;;;;10.18;6.47;;;;;;;20.12;85.03;94317.16;5073251;28;20503;-80
2021/06/10 08:28:54;;;;;;;7.30;5.97;;;;;;;19.82;86.89;94315.72;5073841;28;20734;-78
2021/06/10 08:31:20;;;;;;;10.07;5.93;;;;;;;19.74;88.46;94310.81;5074261;28;20716;-76
2021/06/10 08:33:46;;;;;;;7.82;5.68;;;;;;;19.45;89.53;94316.22;5076040;28;20194;-77
2021/06/10 08:36:18;;;;;;;9.50;5.57;;;;;;;19.42;89.39;94311.41;5073951;28;20210;-77
2021/06/10 08:38:44;;;;;;;9.07;6.18;;;;;;;19.34;90.27;94311.81;5073834;28;20264;-78
2021/06/10 08:41:12;;;;;;;6.85;4.70;;;;;;;19.38;91.32;94313.75;5073849;28;20199;-78
2021/06/10 08:43:38;;;;;;;9.93;5.53;;;;;;;19.57;96.03;94310.84;5073746;28;20279;-77
2021/06/10 08:46:09;;;;;;;6.55;5.25;;;;;;;20.14;91.75;94315.06;5073426;28;20199;-79
2021/06/10 08:48:37;;;;;;;8.75;5.82;;;;;;;20.80;87.80;94308.88;5073656;28;20222;-78
2021/06/10 08:51:05;;;;;;;7.28;5.53;;;;;;;21.02;84.06;94312.28;5073556;28;20211;-79
2021/06/10 08:53:33;;;;;;;9.80;5.55;;;;;;;21.48;87.40;94313.75;5073385;28;20202;-78
2021/06/10 08:55:59;;;;;;;6.53;4.97;;;;;;;21.85;84.76;94315.56;5073258;28;20267;-78
2021/06/10 08:58:27;;;;;;;8.05;5.43;;;;;;;22.11;77.17;94314.63;5073596;28;20216;-76
2021/06/10 09:00:54;;;;;;;9.05;5.60;;;;;;;21.51;76.01;94314.03;5073530;28;20195;-76
2021/06/10 09:03:21;;;;;;;8.25;5.07;;;;;;;20.84;78.82;94310.00;5073390;28;20203;-76
2021/06/10 09:06:00;;;;;;;7.63;5.00;;;;;;;20.96;80.76;94312.50;5073102;28;20202;-75
2021/06/10 09:08:27;;;;;;;7.85;4.97;;;;;;;20.96;81.09;94315.94;5073189;28;20210;-77
2021/06/10 09:11:07;;;;;;;6.40;5.25;;;;;;;21.08;79.57;94318.44;5073294;28;20199;-79
2021/06/10 09:13:38;;;;;;;7.43;4.97;;;;;;;21.32;81.41;94326.88;5073050;28;20624;-79
2021/06/10 09:16:23;;;;;;;8.80;5.20;;;;;;;21.09;78.21;94321.91;5073039;28;20203;-78
2021/06/10 09:18:51;;;;;;;6.80;5.40;;;;;;;20.87;80.92;94317.47;5072918;28;20194;-79
2021/06/10 09:21:28;;;;;;;6.28;4.70;;;;;;;21.12;80.67;94316.09;5072497;28;20804;-77
2021/06/10 09:23:54;;;;;;;7.05;4.57;;;;;;;21.07;78.16;94322.94;5072686;28;20226;-76
2021/06/10 09:26:22;;;;;;;8.63;4.45;;;;;;;21.05;77.04;94322.41;5080055;28;20256;-78
2021/06/10 09:28:51;;;;;;;6.25;4.32;;;;;;;20.96;78.57;94320.47;5091724;28;20198;-77
2021/06/10 09:31:36;;;;;;;6.15;4.40;;;;;;;20.51;82.07;94323.16;5093276;28;20236;-77
2021/06/10 09:34:07;;;;;;;6.78;4.50;;;;;;;20.40;82.49;94329.44;5093378;28;20569;-76
2021/06/10 09:36:40;;;;;;;5.35;4.20;;;;;;;20.40;83.24;94320.66;5093221;28;20493;-78
2021/06/10 09:39:08;;;;;;;5.95;4.25;;;;;;;20.60;82.67;94323.53;5092963;28;20198;-77
2021/06/10 09:41:59;;;;;;;6.43;4.45;;;;;;;20.73;82.86;94317.06;5092568;28;20228;-77
2021/06/10 09:44:39;;;;;;;6.63;4.70;;;;;;;20.58;80.17;94322.97;5093072;28;20201;-78
2021/06/10 09:47:06;;;;;;;6.35;4.93;;;;;;;20.76;81.19;94323.72;5092878;28;20232;-79
2021/06/10 09:49:32;;;;;;;8.20;4.80;;;;;;;20.73;84.39;94332.19;5092987;28;20198;-75
2021/06/10 09:51:58;;;;;;;5.40;4.22;;;;;;;20.68;79.82;94336.41;5092845;28;20193;-79
2021/06/10 09:54:41;;;;;;;6.82;4.13;;;;;;;20.75;80.48;94335.38;5092641;28;20229;-78
2021/06/10 09:57:11;;;;;;;7.00;4.72;;;;;;;20.60;78.37;94331.50;5092736;28;20209;-79
2021/06/10 09:59:46;;;;;;;5.43;4.15;;;;;;;20.50;78.92;94340.16;5092902;28;20296;-77
2021/06/10 10:02:20;;;;;;;9.50;4.35;;;;;;;20.76;80.80;94329.03;5093021;28;20254;-77
2021/06/10 10:04:57;;;;;;;6.57;4.43;;;;;;;20.92;81.21;94327.31;5092651;28;20197;-77
2021/06/10 10:07:26;;;;;;;7.50;4.55;;;;;;;21.17;79.66;94332.06;5091478;28;20456;-76
2021/06/10 10:09:52;;;;;;;5.13;4.40;;;;;;;21.48;80.31;94327.03;5092576;28;20597;-76
2021/06/10 10:12:20;;;;;;;5.97;4.35;;;;;;;21.81;78.48;94313.41;5092619;28;20213;-79
2021/06/10 10:14:47;;;;;;;6.22;4.78;;;;;;;22.09;76.22;94314.09;5092659;28;20198;-76
2021/06/10 10:17:13;;;;;;;6.00;4.55;;;;;;;22.12;76.07;94310.91;5092444;28;20289;-77
2021/06/10 10:19:40;;;;;;;6.28;4.68;;;;;;;22.08;76.63;94309.84;5092699;28;20201;-77
2021/06/10 10:22:10;;;;;;;5.80;4.65;;;;;;;22.42;78.16;94309.47;5092747;28;20565;-77
2021/06/10 10:24:38;;;;;;;5.68;4.00;;;;;;;22.80;75.19;94304.78;5079794;28;20329;-76
2021/06/10 10:27:04;;;;;;;5.97;4.22;;;;;;;22.88;70.00;94312.25;5072303;28;20233;-77
2021/06/10 10:29:32;;;;;;;5.10;4.20;;;;;;;22.96;71.16;94302.13;5072141;28;20199;-76
2021/06/10 10:31:58;;;;;;;4.35;3.83;;;;;;;22.85;72.35;94309.31;5072091;28;20211;-76
2021/06/10 10:34:27;;;;;;;5.78;3.88;;;;;;;22.99;71.98;94312.25;5072214;28;20539;-75
2021/06/10 10:36:53;;;;;;;4.95;3.92;;;;;;;22.77;68.84;94304.50;5072260;28;20211;-78
2021/06/10 10:39:29;;;;;;;4.10;3.60;;;;;;;22.78;68.15;94301.56;5072133;28;20624;-78
2021/06/10 10:41:56;;;;;;;6.85;4.03;;;;;;;22.69;67.39;94303.94;5075942;28;20202;-77
2021/06/10 10:44:26;;;;;;;6.20;3.90;;;;;;;22.44;71.29;94302.03;5075595;28;20214;-76
2021/06/10 10:47:06;;;;;;;4.93;3.63;;;;;;;22.64;67.43;94300.47;5076051;28;20645;-76
2021/06/10 10:49:40;;;;;;;4.38;3.47;;;;;;;22.77;66.67;94297.31;5075775;28;20688;-77
2021/06/10 10:52:30;;;;;;;7.07;3.90;;;;;;;23.13;72.60;94297.38;5075759;28;20206;-75
2021/06/10 10:55:17;;;;;;;4.65;3.92;;;;;;;22.82;67.74;94294.66;5075630;28;20249;-76
2021/06/10 10:57:45;;;;;;;3.85;3.40;;;;;;;22.84;68.94;94297.84;5075845;28;20207;-76
2021/06/10 11:00:14;;;;;;;6.82;3.38;;;;;;;23.00;67.45;94297.84;5075654;28;20281;-75
2021/06/10 11:02:50;;;;;;;5.75;3.65;;;;;;;23.01;67.19;94291.47;5075707;28;20214;-76
2021/06/10 11:05:28;;;;;;;5.15;3.60;;;;;;;23.38;65.05;94293.09;5075824;28;20208;-76
2021/06/10 11:07:55;;;;;;;6.28;4.20;;;;;;;24.02;66.36;94281.81;5075582;28;20239;-75
2021/06/10 11:11:01;;;;;;;4.38;3.35;;;;;;;24.65;61.84;94277.03;5075801;28;20202;-75
2021/06/10 11:13:29;;;;;;;6.15;4.45;;;;;;;24.54;63.06;94281.59;5075485;28;20199;-75
2021/06/10 11:15:57;;;;;;;6.13;3.92;;;;;;;24.23;63.76;94276.41;5075691;28;20205;-75
2021/06/10 11:18:45;;;;;;;7.43;4.05;;;;;;;23.78;65.25;94270.09;5075626;28;20203;-75
2021/06/10 11:21:12;;;;;;;6.97;4.20;;;;;;;23.61;66.42;94265.88;5075253;28;20673;-76
2021/06/10 11:23:38;;;;;;;6.63;4.40;;;;;;;23.62;69.47;94272.03;5075082;28;20227;-75
2021/06/10 11:26:15;;;;;;;5.53;4.65;;;;;;;23.69;68.26;94269.09;5075163;28;20621;-75